createdAt,value
2023-03-10T16:31:37.061Z,9.309058
2023-03-10T16:32:36.776Z,9.309097
2023-03-10T16:33:36.776Z,9.309168
2023-03-10T16:34:36.857Z,9.309056
2023-03-10T16:35:37.173Z,9.309091
2023-03-10T16:36:36.641Z,9.309197
2023-03-10T16:37:36.716Z,9.309266
2023-03-10T16:38:36.692Z,9.309145
2023-03-10T16:39:36.913Z,9.309125
2023-03-10T16:40:36.615Z,9.309163
2023-03-10T16:41:36.992Z,9.309111
2023-03-10T16:42:36.764Z,9.309132
2023-03-10T16:43:37.128Z,9.309247
2023-03-10T16:44:36.886Z,9.309492
2023-03-10T16:45:36.702Z,9.309210
2023-03-10T16:46:36.983Z,9.309093
2023-03-10T16:47:36.688Z,9.309182
2023-03-10T16:48:36.811Z,9.309198
2023-03-10T16:49:36.725Z,9.309225
2023-03-10T16:50:36.689Z,9.309215
2023-03-10T16:51:36.635Z,9.309190
2023-03-10T16:52:36.894Z,9.309159
2023-03-10T16:53:36.601Z,9.309078
2023-03-10T16:54:36.774Z,9.309026
2023-03-10T16:55:36.624Z,9.309108
2023-03-10T16:56:36.586Z,9.309164
2023-03-10T16:57:36.981Z,9.309104
2023-03-10T16:58:36.552Z,9.308980
2023-03-10T16:59:36.617Z,9.309173
2023-03-10T17:00:36.547Z,9.309113
2023-03-10T17:01:36.610Z,9.309105
2023-03-10T17:02:36.440Z,9.309062
2023-03-10T17:03:36.594Z,9.309134
2023-03-10T17:04:36.481Z,9.309113
2023-03-10T17:05:36.658Z,9.309039
2023-03-10T17:06:36.527Z,9.309053
2023-03-10T17:07:43.418Z,9.309063
2023-03-10T17:08:38.426Z,9.309063
2023-03-10T17:09:36.370Z,9.309104
2023-03-10T17:10:36.514Z,9.309175
2023-03-10T17:11:36.613Z,9.309145
2023-03-10T17:12:36.590Z,9.309165
2023-03-10T17:13:36.731Z,9.309113
2023-03-10T17:14:36.477Z,9.309113
2023-03-10T17:15:36.437Z,9.308999
2023-03-10T17:16:36.503Z,9.309082
2023-03-10T17:17:36.529Z,9.309139
2023-03-10T17:18:36.543Z,9.309172
2023-03-10T17:19:36.657Z,9.309193
2023-03-10T17:20:36.495Z,9.309172
2023-03-10T17:21:36.714Z,9.309033
2023-03-10T17:22:37.867Z,9.309064
2023-03-10T17:23:37.585Z,9.309088
2023-03-10T17:24:37.146Z,9.309123
2023-03-10T17:25:37.961Z,9.309143
2023-03-10T17:26:36.535Z,9.309184
2023-03-10T17:27:36.282Z,9.309214
2023-03-10T17:28:36.264Z,9.309139
2023-03-10T17:29:36.236Z,9.309095
2023-03-10T17:30:36.222Z,9.309113
2023-03-10T17:31:36.753Z,9.309092
2023-03-10T17:32:36.493Z,9.308990
2023-03-10T17:33:36.320Z,9.309114
2023-03-10T17:34:36.155Z,9.309114
2023-03-10T17:35:36.258Z,9.309130
2023-03-10T17:36:36.273Z,9.309137
2023-03-10T17:37:36.556Z,9.309155
2023-03-10T17:38:36.400Z,9.309166
2023-03-10T17:39:36.324Z,9.309166
2023-03-10T17:40:36.360Z,9.309100
2023-03-10T17:41:36.276Z,9.309152
2023-03-10T17:42:36.391Z,9.309178
2023-03-10T17:43:36.293Z,9.309113
2023-03-10T17:44:36.227Z,9.309134
2023-03-10T17:45:36.469Z,9.309133
2023-03-10T17:46:36.399Z,9.309144
2023-03-10T17:47:36.215Z,9.309136
2023-03-10T17:48:36.664Z,9.309101
2023-03-10T17:49:36.876Z,9.309157
2023-03-10T17:50:36.712Z,9.309129
2023-03-10T17:51:38.137Z,9.309105
2023-03-10T17:52:36.501Z,9.309135
2023-03-10T17:53:36.549Z,9.309135
2023-03-10T17:54:36.801Z,9.309175
2023-03-10T17:55:36.296Z,9.309131
2023-03-10T17:56:36.722Z,9.309122
2023-03-10T17:57:38.176Z,9.309072
2023-03-10T17:58:36.723Z,9.309073
2023-03-10T17:59:36.415Z,9.309106
2023-03-10T18:00:36.574Z,9.309102
2023-03-10T18:01:36.840Z,9.309117
2023-03-10T18:02:37.771Z,9.309115
2023-03-10T18:03:36.479Z,9.309154
2023-03-10T18:04:36.158Z,9.309071
2023-03-10T18:05:36.247Z,9.309033
2023-03-10T18:06:36.289Z,9.309095
2023-03-10T18:07:36.499Z,9.309055
2023-03-10T18:08:36.704Z,9.309157
2023-03-10T18:09:36.721Z,9.309221
2023-03-10T18:10:36.622Z,9.309123
2023-03-10T18:11:36.679Z,9.309138
2023-03-10T18:12:36.410Z,9.309137
2023-03-10T18:13:36.757Z,9.309121
2023-03-10T18:14:36.361Z,9.309114
2023-03-10T18:15:36.370Z,9.309082
2023-03-10T18:16:36.575Z,9.309060
2023-03-10T18:17:36.435Z,9.309071
2023-03-10T18:18:36.671Z,9.309039
2023-03-10T18:19:36.652Z,9.309044
2023-03-10T18:20:36.249Z,9.309081
2023-03-10T18:21:36.368Z,9.309138
2023-03-10T18:22:36.018Z,9.309086
2023-03-10T18:23:36.670Z,9.309044
2023-03-10T18:24:37.069Z,9.308973
2023-03-10T18:25:36.527Z,9.308966
2023-03-10T18:26:36.638Z,9.309011
2023-03-10T18:27:36.661Z,9.309035
2023-03-10T18:28:36.452Z,9.309010
2023-03-10T18:29:36.486Z,9.309121
2023-03-10T18:30:36.627Z,9.309177
2023-03-10T18:31:36.476Z,9.309073
2023-03-10T18:32:36.438Z,9.309153
2023-03-10T18:33:36.553Z,9.309089
2023-03-10T18:34:36.551Z,9.309109
2023-03-10T18:35:37.732Z,9.309085
2023-03-10T18:36:36.600Z,9.309148
2023-03-10T18:37:36.327Z,9.309172
2023-03-10T18:38:36.212Z,9.309134
2023-03-10T18:39:36.431Z,9.309160
2023-03-10T18:40:36.402Z,9.309061
2023-03-10T18:41:36.389Z,9.309016
2023-03-10T18:42:35.950Z,9.309191
2023-03-10T18:43:36.339Z,9.309152
2023-03-10T18:44:36.383Z,9.309121
2023-03-10T18:45:36.292Z,9.309078
2023-03-10T18:46:36.465Z,9.309043
2023-03-10T18:47:36.387Z,9.309000
2023-03-10T18:48:36.201Z,9.309036
2023-03-10T18:49:36.213Z,9.309044
2023-03-10T18:50:36.417Z,9.308873
2023-03-10T18:51:36.832Z,9.308936
2023-03-10T18:52:36.436Z,9.309007
2023-03-10T18:53:36.503Z,9.309100
2023-03-10T18:54:36.248Z,9.309018
2023-03-10T18:55:36.440Z,9.308903
2023-03-10T18:56:36.291Z,9.308947
2023-03-10T18:57:36.494Z,9.309030
2023-03-10T18:58:36.350Z,9.309107
2023-03-10T18:59:36.123Z,9.309152
2023-03-10T19:00:36.279Z,9.309139
2023-03-10T19:01:36.268Z,9.309196
2023-03-10T19:02:36.451Z,9.309115
2023-03-10T19:03:36.369Z,9.309052
2023-03-10T19:04:36.355Z,9.309106
2023-03-10T19:05:36.349Z,9.309093
2023-03-10T19:06:36.355Z,9.309096
2023-03-10T19:07:36.372Z,9.309152
2023-03-10T19:08:36.549Z,9.309204
2023-03-10T19:09:36.251Z,9.309037
2023-03-10T19:10:36.321Z,9.308984
2023-03-10T19:11:36.278Z,9.309066
2023-03-10T19:12:36.257Z,9.308955
2023-03-10T19:13:36.084Z,9.309005
2023-03-10T19:14:36.304Z,9.308963
2023-03-10T19:15:36.299Z,9.309093
2023-03-10T19:16:36.045Z,9.308948
2023-03-10T19:17:37.202Z,9.308894
2023-03-10T19:18:37.002Z,9.308904
2023-03-10T19:19:35.769Z,9.308866
2023-03-10T19:20:35.983Z,9.309020
2023-03-10T19:21:36.193Z,9.308986
2023-03-10T19:22:37.140Z,9.309004
2023-03-10T19:23:36.198Z,9.309026
2023-03-10T19:24:36.523Z,9.309169
2023-03-10T19:25:36.169Z,9.309055
2023-03-10T19:26:36.128Z,9.309046
2023-03-10T19:27:35.847Z,9.308927
2023-03-10T19:28:36.250Z,9.308916
2023-03-10T19:29:36.813Z,9.309044
2023-03-10T19:30:36.067Z,9.309069
2023-03-10T19:31:37.278Z,9.309154
2023-03-10T19:32:36.029Z,9.309054
2023-03-10T19:33:35.864Z,9.309134
2023-03-10T19:34:35.950Z,9.309119
2023-03-10T19:35:36.078Z,9.309040
2023-03-10T19:36:36.063Z,9.308934
2023-03-10T19:37:35.912Z,9.308930
2023-03-10T19:38:36.048Z,9.308814
2023-03-10T19:39:36.115Z,9.309032
2023-03-10T19:40:36.353Z,9.308984
2023-03-10T19:41:36.091Z,9.308978
2023-03-10T19:42:35.948Z,9.309048
2023-03-10T19:43:36.082Z,9.309031
2023-03-10T19:44:36.010Z,9.308888
2023-03-10T19:45:35.866Z,9.308960
2023-03-10T19:46:36.367Z,9.309117
2023-03-10T19:47:35.943Z,9.308990
2023-03-10T19:48:36.012Z,9.309002
2023-03-10T19:49:37.093Z,9.309115
2023-03-10T19:50:35.846Z,9.309068
2023-03-10T19:51:37.200Z,9.308997
2023-03-10T19:52:35.703Z,9.308947
2023-03-10T19:53:35.976Z,9.308908
2023-03-10T19:54:36.041Z,9.308950
2023-03-10T19:55:35.935Z,9.309004
2023-03-10T19:56:36.007Z,9.309050
2023-03-10T19:57:37.274Z,9.308961
2023-03-10T19:58:35.985Z,9.309009
2023-03-10T19:59:35.946Z,9.309087
2023-03-10T20:00:36.440Z,9.309105
2023-03-10T20:01:35.994Z,9.309095
2023-03-10T20:02:36.278Z,9.309074
2023-03-10T20:03:36.937Z,9.309085
2023-03-10T20:04:36.895Z,9.309116
2023-03-10T20:05:35.675Z,9.309102
2023-03-10T20:06:35.647Z,9.309109
2023-03-10T20:07:35.849Z,9.309109
2023-03-10T20:08:36.022Z,9.309155
2023-03-10T20:09:37.039Z,9.309074
2023-03-10T20:10:35.809Z,9.309042
2023-03-10T20:11:35.855Z,9.309031
2023-03-10T20:12:35.766Z,9.309035
2023-03-10T20:13:35.895Z,9.309024
2023-03-10T20:14:35.724Z,9.309091
2023-03-10T20:15:35.901Z,9.309198
2023-03-10T20:16:35.926Z,9.309234
2023-03-10T20:17:35.845Z,9.309215
2023-03-10T20:18:35.878Z,9.309126
2023-03-10T20:19:36.054Z,9.309147
2023-03-10T20:20:35.845Z,9.309093
2023-03-10T20:21:35.670Z,9.309092
2023-03-10T20:22:35.266Z,9.309109
2023-03-10T20:23:36.476Z,9.309072
2023-03-10T20:24:35.769Z,9.309051
2023-03-10T20:25:36.821Z,9.309080
2023-03-10T20:26:35.643Z,9.309006
2023-03-10T20:27:35.493Z,9.309010
2023-03-10T20:28:35.454Z,9.309116
2023-03-10T20:29:35.774Z,9.309065
2023-03-10T20:30:35.960Z,9.309114
2023-03-10T20:31:35.673Z,9.309059
2023-03-10T20:32:35.820Z,9.309042
2023-03-10T20:33:35.735Z,9.309026
2023-03-10T20:34:35.476Z,9.309002
2023-03-10T20:35:35.730Z,9.308995
2023-03-10T20:36:35.383Z,9.308999
2023-03-10T20:37:35.522Z,9.309063
2023-03-10T20:38:35.332Z,9.309067
2023-03-10T20:39:35.646Z,9.309027
2023-03-10T20:40:35.421Z,9.309057
2023-03-10T20:41:35.694Z,9.309057
2023-03-10T20:42:35.341Z,9.308992
2023-03-10T20:43:35.347Z,9.309113
2023-03-10T20:44:35.292Z,9.309083
2023-03-10T20:45:35.529Z,9.309135
2023-03-10T20:46:35.403Z,9.309156
2023-03-10T20:47:35.034Z,9.309043
2023-03-10T20:48:35.487Z,9.309032
2023-03-10T20:49:35.356Z,9.308881
2023-03-10T20:50:35.169Z,9.308951
2023-03-10T20:51:35.372Z,9.309093
2023-03-10T20:52:35.656Z,9.309242
2023-03-10T20:53:35.244Z,9.309210
2023-03-10T20:54:35.282Z,9.309176
2023-03-10T20:55:35.187Z,9.309091
2023-03-10T20:56:35.389Z,9.309014
2023-03-10T20:57:35.185Z,9.309119
2023-03-10T20:58:35.288Z,9.309082
2023-03-10T20:59:35.460Z,9.309128
2023-03-10T21:00:36.093Z,9.309097
2023-03-10T21:01:35.591Z,9.309203
2023-03-10T21:02:35.714Z,9.309342
2023-03-10T21:03:35.526Z,9.309600
2023-03-10T21:04:35.489Z,9.309185
2023-03-10T21:05:35.329Z,9.309163
2023-03-10T21:06:35.278Z,9.309145
2023-03-10T21:07:34.938Z,9.309053
2023-03-10T21:08:35.559Z,9.309052
2023-03-10T21:09:35.143Z,9.309098
2023-03-10T21:10:35.346Z,9.309189
2023-03-10T21:11:35.365Z,9.309049
2023-03-10T21:12:35.395Z,9.308992
2023-03-10T21:13:35.375Z,9.308972
2023-03-10T21:14:35.244Z,9.309011
2023-03-10T21:15:35.349Z,9.309085
2023-03-10T21:16:35.258Z,9.309056
2023-03-10T21:17:35.204Z,9.308999
2023-03-10T21:18:35.116Z,9.309127
2023-03-10T21:19:35.464Z,9.309093
2023-03-10T21:20:35.334Z,9.309129
2023-03-10T21:21:35.090Z,9.308824
2023-03-10T21:22:35.023Z,9.308932
2023-03-10T21:23:35.103Z,9.309052
2023-03-10T21:24:34.953Z,9.309108
2023-03-10T21:25:35.044Z,9.309077
2023-03-10T21:26:35.105Z,9.309023
2023-03-10T21:27:35.076Z,9.309011
2023-03-10T21:28:35.315Z,9.309040
2023-03-10T21:29:35.067Z,9.309094
2023-03-10T21:30:35.548Z,9.309029
2023-03-10T21:31:35.183Z,9.309049
2023-03-10T21:32:35.136Z,9.309090
2023-03-10T21:33:34.812Z,9.309053
2023-03-10T21:34:34.951Z,9.309025
2023-03-10T21:35:35.773Z,9.309157
2023-03-10T21:36:35.122Z,9.309160
2023-03-10T21:37:37.588Z,9.309058
2023-03-10T21:38:36.149Z,9.309007
2023-03-10T21:39:34.951Z,9.308975
2023-03-10T21:40:35.120Z,9.308859
2023-03-10T21:41:35.034Z,9.308950
2023-03-10T21:42:35.009Z,9.309009
2023-03-10T21:43:35.110Z,9.308999
2023-03-10T21:44:35.068Z,9.309013
2023-03-10T21:45:34.936Z,9.309049
2023-03-10T21:46:35.308Z,9.309068
2023-03-10T21:47:34.937Z,9.309072
2023-03-10T21:48:35.210Z,9.308959
2023-03-10T21:49:35.096Z,9.308858
2023-03-10T21:50:35.192Z,9.308881
2023-03-10T21:51:35.124Z,9.308937
2023-03-10T21:52:35.039Z,9.309233
2023-03-10T21:53:35.162Z,9.309225
2023-03-10T21:54:34.806Z,9.309038
2023-03-10T21:55:35.014Z,9.308995
2023-03-10T21:56:34.926Z,9.309005
2023-03-10T21:57:34.963Z,9.309037
2023-03-10T21:58:34.472Z,9.309069
2023-03-10T21:59:34.903Z,9.309095
2023-03-10T22:00:34.869Z,9.309074
2023-03-10T22:01:35.070Z,9.309031
2023-03-10T22:02:34.928Z,9.308969
2023-03-10T22:03:35.537Z,9.308975
2023-03-10T22:04:34.980Z,9.308917
2023-03-10T22:05:34.538Z,9.308903
2023-03-10T22:06:34.596Z,9.309095
2023-03-10T22:07:34.522Z,9.309085
2023-03-10T22:08:35.048Z,9.309065
2023-03-10T22:09:34.718Z,9.309057
2023-03-10T22:10:34.973Z,9.309035
2023-03-10T22:11:34.991Z,9.308999
2023-03-10T22:12:34.903Z,9.309116
2023-03-10T22:13:34.714Z,9.309042
2023-03-10T22:14:35.064Z,9.308850
2023-03-10T22:15:34.391Z,9.308863
2023-03-10T22:16:34.880Z,9.308942
2023-03-10T22:17:34.518Z,9.308976
2023-03-10T22:18:34.803Z,9.309067
2023-03-10T22:19:34.937Z,9.309011
2023-03-10T22:20:34.795Z,9.309007
2023-03-10T22:21:34.496Z,9.309003
2023-03-10T22:22:34.638Z,9.308951
2023-03-10T22:23:34.349Z,9.309035
2023-03-10T22:24:34.369Z,9.309092
2023-03-10T22:25:34.288Z,9.309051
2023-03-10T22:26:34.376Z,9.309026
2023-03-10T22:27:34.546Z,9.309031
2023-03-10T22:28:34.829Z,9.309146
2023-03-10T22:29:34.672Z,9.309091
2023-03-10T22:30:34.875Z,9.309091
2023-03-10T22:31:34.488Z,9.309095
2023-03-10T22:32:34.826Z,9.309099
2023-03-10T22:33:34.444Z,9.309056
2023-03-10T22:34:34.277Z,9.309061
2023-03-10T22:35:34.528Z,9.309080
2023-03-10T22:36:34.591Z,9.309075
2023-03-10T22:37:34.270Z,9.309078
2023-03-10T22:38:34.298Z,9.309051
2023-03-10T22:39:34.190Z,9.309048
2023-03-10T22:40:34.184Z,9.308954
2023-03-10T22:41:34.204Z,9.309006
2023-03-10T22:42:35.234Z,9.309019
2023-03-10T22:43:34.141Z,9.309229
2023-03-10T22:44:34.048Z,9.309195
2023-03-10T22:45:34.056Z,9.309116
2023-03-10T22:46:34.050Z,9.309006
2023-03-10T22:47:34.236Z,9.308958
2023-03-10T22:48:34.043Z,9.309015
2023-03-10T22:49:34.003Z,9.309044
2023-03-10T22:50:35.091Z,9.308917
2023-03-10T22:51:34.035Z,9.308984
2023-03-10T22:52:34.147Z,9.309010
2023-03-10T22:53:35.300Z,9.308992
2023-03-10T22:54:33.945Z,9.309071
2023-03-10T22:55:34.064Z,9.309091
2023-03-10T22:56:34.052Z,9.309072
2023-03-10T22:57:34.042Z,9.309060
2023-03-10T22:58:34.162Z,9.309252
2023-03-10T22:59:34.087Z,9.309216
2023-03-10T23:00:34.065Z,9.309110
2023-03-10T23:01:34.084Z,9.308978
2023-03-10T23:02:34.182Z,9.309098
2023-03-10T23:03:34.133Z,9.309107
2023-03-10T23:04:34.120Z,9.309116
2023-03-10T23:05:33.964Z,9.309175
2023-03-10T23:06:34.030Z,9.309021
2023-03-10T23:07:33.971Z,9.308918
2023-03-10T23:08:33.956Z,9.308889
2023-03-10T23:09:34.040Z,9.308943
2023-03-10T23:10:33.936Z,9.308984
2023-03-10T23:11:34.075Z,9.309016
2023-03-10T23:12:33.845Z,9.309096
2023-03-10T23:13:33.853Z,9.309122
2023-03-10T23:14:33.859Z,9.309029
2023-03-10T23:15:33.928Z,9.309055
2023-03-10T23:16:33.881Z,9.309130
2023-03-10T23:17:33.916Z,9.309058
2023-03-10T23:18:33.883Z,9.309057
2023-03-10T23:19:33.954Z,9.309084
2023-03-10T23:20:33.929Z,9.309064
2023-03-10T23:21:33.794Z,9.309097
2023-03-10T23:22:33.902Z,9.309031
2023-03-10T23:23:33.923Z,9.309036
2023-03-10T23:24:33.835Z,9.309083
2023-03-10T23:25:33.995Z,9.309144
2023-03-10T23:26:33.816Z,9.309087
2023-03-10T23:27:33.914Z,9.309086
2023-03-10T23:28:33.836Z,9.309145
2023-03-10T23:29:33.815Z,9.309086
2023-03-10T23:30:33.858Z,9.309048
2023-03-10T23:31:33.865Z,9.309101
2023-03-10T23:32:33.829Z,9.309174
2023-03-10T23:33:33.801Z,9.309089
2023-03-10T23:34:33.786Z,9.309162
2023-03-10T23:35:33.829Z,9.309081
2023-03-10T23:36:33.845Z,9.309095
2023-03-10T23:37:33.753Z,9.309051
2023-03-10T23:38:33.683Z,9.309073
2023-03-10T23:39:33.689Z,9.309087
2023-03-10T23:40:33.676Z,9.309057
2023-03-10T23:41:34.007Z,9.308986
2023-03-10T23:42:33.652Z,9.309046
2023-03-10T23:43:33.632Z,9.309057
2023-03-10T23:44:33.664Z,9.309072
2023-03-10T23:45:33.686Z,9.309094
2023-03-10T23:46:33.609Z,9.309122
2023-03-10T23:47:33.759Z,9.309166
2023-03-10T23:48:33.778Z,9.309114
2023-03-10T23:49:33.676Z,9.309149
2023-03-10T23:50:33.711Z,9.309115
2023-03-10T23:51:33.682Z,9.309117
2023-03-10T23:52:33.723Z,9.309122
2023-03-10T23:53:33.658Z,9.309142
2023-03-10T23:54:33.668Z,9.309112
2023-03-10T23:55:33.647Z,9.309222
2023-03-10T23:56:33.624Z,9.309310
2023-03-10T23:57:33.664Z,9.309239
2023-03-10T23:58:33.642Z,9.309192
2023-03-10T23:59:33.645Z,9.309130
